Time;durP1;ratioP1;P1;durP2;ratioP2;P2;SDS_P1;SDS_P2;PMS_P1;PMS_P2;Temp;Humidity;BMP_temperature;BMP_pressure;BME280_temperature;BME280_humidity;BME280_pressure;Samples;Min_cycle;Max_cycle;Signal;HPM_P1;HPM_P2
2023/08/02 00:00:55;;;;;;;0.22;0.22;;;18.70;76.80;;;;;;5034602;28;20531;-81
2023/08/02 00:03:21;;;;;;;0.10;0.10;;;18.70;76.80;;;;;;5035214;28;20052;-81
2023/08/02 00:06:06;;;;;;;;;;;18.70;77.10;;;;;;5052104;28;20033;-80
2023/08/02 00:08:32;;;;;;;0.20;0.20;;;18.70;76.80;;;;;;5051255;28;19924;-75
2023/08/02 00:10:59;;;;;;;0.10;0.10;;;18.70;77.10;;;;;;5034810;28;20436;-74
2023/08/02 00:13:27;;;;;;;0.10;0.10;;;18.70;77.20;;;;;;5035115;28;20409;-80
2023/08/02 00:15:53;;;;;;;0.10;0.10;;;18.70;77.20;;;;;;5034414;28;20488;-76
2023/08/02 00:18:19;;;;;;;0.10;0.10;;;18.70;77.10;;;;;;5051644;28;20502;-79
2023/08/02 00:20:45;;;;;;;;;;;18.60;76.90;;;;;;5051914;28;20039;-80
2023/08/02 00:23:11;;;;;;;0.30;0.30;;;18.60;76.70;;;;;;5051474;28;20011;-79
2023/08/02 00:25:40;;;;;;;;;;;18.70;77.10;;;;;;5034970;28;20040;-80
2023/08/02 00:28:06;;;;;;;0.10;0.10;;;18.60;76.50;;;;;;5034858;28;19970;-75
2023/08/02 00:33:38;;;;;;;0.30;0.30;;;18.60;77.10;;;;;;5037193;28;20044;-77
2023/08/02 00:36:04;;;;;;;0.10;0.10;;;18.60;77.00;;;;;;5069500;28;20044;-80
2023/08/02 00:38:31;;;;;;;;;;;18.60;77.10;;;;;;5076062;28;20401;-80
2023/08/02 00:41:16;;;;;;;0.10;0.10;;;18.60;77.10;;;;;;5075534;28;19916;-75
2023/08/02 00:43:47;;;;;;;0.10;0.10;;;18.60;77.10;;;;;;5075494;28;20061;-80
2023/08/02 00:46:16;;;;;;;0.10;0.10;;;18.60;77.00;;;;;;5075761;28;20040;-79
2023/08/02 00:48:43;;;;;;;0.10;0.10;;;18.50;77.30;;;;;;5075468;28;20040;-78
2023/08/02 00:51:33;;;;;;;0.15;0.15;;;18.50;77.20;;;;;;5075366;28;20040;-74
2023/08/02 00:54:02;;;;;;;0.32;0.32;;;18.60;77.00;;;;;;5075599;28;20397;-75
2023/08/02 00:56:32;;;;;;;0.10;0.10;;;18.60;76.70;;;;;;5075696;28;20090;-81
2023/08/02 00:59:10;;;;;;;0.20;0.20;;;18.60;76.70;;;;;;5093434;28;20086;-75
2023/08/02 01:01:36;;;;;;;0.08;0.08;;;18.60;76.70;;;;;;5093079;28;20040;-74
2023/08/02 01:04:02;;;;;;;;;;;18.60;76.50;;;;;;5075568;28;20035;-75
2023/08/02 01:06:54;;;;;;;0.30;0.30;;;18.60;76.40;;;;;;5093435;28;19962;-74
2023/08/02 01:10:16;;;;;;;0.20;0.10;;;18.50;76.60;;;;;;5075504;28;20032;-74
2023/08/02 01:12:49;;;;;;;0.90;0.75;;;18.50;76.70;;;;;;5074730;28;20047;-74
2023/08/02 01:15:15;;;;;;;0.30;0.30;;;18.60;76.30;;;;;;5092706;28;20039;-80
2023/08/02 01:17:43;;;;;;;0.28;0.10;;;18.50;75.60;;;;;;5074749;28;20077;-75
2023/08/02 01:20:09;;;;;;;0.10;0.10;;;18.50;76.10;;;;;;5056860;28;20032;-80
2023/08/02 01:22:44;;;;;;;0.10;0.10;;;18.50;76.10;;;;;;5093060;28;20036;-80
2023/08/02 01:25:11;;;;;;;0.10;0.10;;;18.60;76.30;;;;;;5074431;28;20103;-81
2023/08/02 01:28:17;;;;;;;0.10;0.10;;;18.50;76.30;;;;;;5054674;28;20060;-81
2023/08/02 01:30:45;;;;;;;0.10;0.10;;;18.60;76.40;;;;;;5054249;28;20493;-81
2023/08/02 01:33:37;;;;;;;0.68;0.68;;;18.60;76.10;;;;;;5071286;28;20472;-77
2023/08/02 01:36:04;;;;;;;0.10;0.10;;;18.60;76.00;;;;;;5071339;28;20381;-74
2023/08/02 01:38:33;;;;;;;0.10;0.10;;;18.60;75.70;;;;;;5054651;28;20033;-80
2023/08/02 01:41:05;;;;;;;0.10;0.10;;;18.60;75.00;;;;;;5070971;28;20060;-74
2023/08/02 01:43:34;;;;;;;0.10;0.10;;;18.70;75.30;;;;;;5072295;28;20043;-81
2023/08/02 01:46:05;;;;;;;0.10;0.10;;;18.70;75.00;;;;;;5070847;28;20035;-80
2023/08/02 01:48:32;;;;;;;0.10;0.10;;;18.80;75.00;;;;;;5071390;28;20047;-74
2023/08/02 01:50:58;;;;;;;0.63;0.63;;;18.70;75.20;;;;;;5070813;28;20066;-80
2023/08/02 01:53:24;;;;;;;0.10;0.10;;;18.70;75.40;;;;;;5071106;28;20041;-81
2023/08/02 01:55:59;;;;;;;;;;;18.70;75.60;;;;;;5073214;28;20115;-82
2023/08/02 01:58:25;;;;;;;0.20;0.20;;;18.60;75.70;;;;;;5071285;28;19970;-74
2023/08/02 02:00:51;;;;;;;;;;;18.60;75.70;;;;;;5054770;28;20468;-80
2023/08/02 02:03:35;;;;;;;0.10;0.10;;;18.60;75.80;;;;;;5072256;28;19919;-74
2023/08/02 02:06:04;;;;;;;0.55;0.47;;;18.60;75.70;;;;;;5072168;28;20040;-80
2023/08/02 02:08:30;;;;;;;0.10;0.10;;;18.70;75.00;;;;;;5054048;28;20375;-80
2023/08/02 02:10:56;;;;;;;;;;;18.70;74.30;;;;;;5070654;28;20067;-74
2023/08/02 02:13:24;;;;;;;0.52;0.52;;;18.70;74.70;;;;;;5054031;28;19912;-74
2023/08/02 02:15:51;;;;;;;0.17;0.10;;;18.70;74.40;;;;;;5070595;28;20103;-81
2023/08/02 02:18:17;;;;;;;0.10;0.10;;;18.70;73.90;;;;;;5070922;28;20064;-75
2023/08/02 02:20:43;;;;;;;0.17;0.10;;;18.80;74.30;;;;;;5070299;28;20024;-76
2023/08/02 02:23:09;;;;;;;0.20;0.20;;;18.70;75.20;;;;;;5070476;28;20042;-80
2023/08/02 02:25:35;;;;;;;;;;;18.80;74.40;;;;;;5071071;28;20535;-80
2023/08/02 02:28:01;;;;;;;0.10;0.10;;;18.80;74.10;;;;;;5092328;28;20007;-75
2023/08/02 02:30:27;;;;;;;0.10;0.10;;;18.80;73.80;;;;;;5075219;28;20031;-76
2023/08/02 02:32:56;;;;;;;;;;;18.90;73.70;;;;;;5078399;28;20052;-79
2023/08/02 02:35:42;;;;;;;0.10;0.10;;;18.90;73.60;;;;;;5095935;28;19937;-80
2023/08/02 02:38:08;;;;;;;0.10;0.10;;;18.90;73.30;;;;;;5032810;28;20081;-77
2023/08/02 02:40:34;;;;;;;0.10;0.10;;;18.90;73.30;;;;;;5016429;28;20470;-79
2023/08/02 02:43:13;;;;;;;0.08;0.08;;;18.90;73.50;;;;;;5016543;28;20049;-79
2023/08/02 02:45:51;;;;;;;0.20;0.20;;;18.90;73.60;;;;;;5033073;28;20045;-80
2023/08/02 02:48:17;;;;;;;0.10;0.10;;;19.00;73.30;;;;;;5033269;28;20045;-74
2023/08/02 02:50:43;;;;;;;0.10;0.10;;;18.90;73.30;;;;;;5032868;28;20085;-75
2023/08/02 02:53:11;;;;;;;0.10;0.10;;;18.90;73.10;;;;;;5016539;28;20037;-76
2023/08/02 02:55:44;;;;;;;0.10;0.10;;;19.00;72.80;;;;;;5032887;28;20037;-80
2023/08/02 02:58:10;;;;;;;0.10;0.10;;;19.00;72.70;;;;;;5033150;28;20057;-79
2023/08/02 03:00:36;;;;;;;0.10;0.10;;;19.00;72.80;;;;;;5032586;28;20405;-79
2023/08/02 03:03:02;;;;;;;0.10;0.10;;;19.00;72.90;;;;;;5016666;28;20592;-76
2023/08/02 03:05:28;;;;;;;0.30;0.30;;;19.00;72.80;;;;;;5032567;28;20107;-80
2023/08/02 03:07:54;;;;;;;0.10;0.10;;;19.00;73.00;;;;;;5016396;28;20045;-75
2023/08/02 03:10:20;;;;;;;0.30;0.30;;;19.00;73.00;;;;;;5084406;28;20149;-75
2023/08/02 03:12:46;;;;;;;0.10;0.10;;;19.00;72.90;;;;;;5095677;28;20417;-79
2023/08/02 03:15:12;;;;;;;0.10;0.10;;;19.00;73.00;;;;;;5095133;28;20044;-79
2023/08/02 03:17:38;;;;;;;0.38;0.38;;;19.00;72.80;;;;;;5077281;28;20089;-76
2023/08/02 03:20:06;;;;;;;0.10;0.10;;;19.00;72.70;;;;;;5077029;28;20527;-75
2023/08/02 03:22:33;;;;;;;1.00;0.35;;;19.00;72.60;;;;;;5076967;28;20034;-79
2023/08/02 03:24:59;;;;;;;0.20;0.20;;;19.00;72.50;;;;;;5077201;28;20062;-79
2023/08/02 03:27:28;;;;;;;0.13;0.13;;;19.00;72.70;;;;;;5094661;28;20048;-75
2023/08/02 03:29:54;;;;;;;0.10;0.10;;;19.00;72.70;;;;;;5077069;28;20472;-75
2023/08/02 03:32:20;;;;;;;;;;;19.00;72.70;;;;;;5076980;28;20028;-78
2023/08/02 03:34:46;;;;;;;0.10;0.10;;;19.00;72.80;;;;;;5077206;28;20378;-75
2023/08/02 03:37:12;;;;;;;0.10;0.10;;;19.00;72.80;;;;;;5076638;28;20035;-76
2023/08/02 03:39:38;;;;;;;0.13;0.13;;;18.90;73.10;;;;;;5076884;28;20089;-80
2023/08/02 03:42:04;;;;;;;0.10;0.10;;;18.90;73.20;;;;;;5075269;28;20040;-79
2023/08/02 03:44:30;;;;;;;0.10;0.10;;;18.80;73.20;;;;;;5076818;28;20043;-75
2023/08/02 03:46:56;;;;;;;;;;;18.80;73.40;;;;;;5076848;28;20127;-79
2023/08/02 03:49:28;;;;;;;0.10;0.10;;;18.80;73.40;;;;;;5076821;28;20015;-79
2023/08/02 03:51:54;;;;;;;0.80;0.28;;;18.80;73.20;;;;;;5094498;28;20129;-79
2023/08/02 03:54:20;;;;;;;0.43;0.38;;;18.80;73.30;;;;;;5076657;28;20043;-75
2023/08/02 03:56:46;;;;;;;;;;;18.80;73.30;;;;;;5076795;28;20052;-75
2023/08/02 03:59:14;;;;;;;0.45;0.22;;;18.80;73.30;;;;;;5076488;28;20356;-75
2023/08/02 04:01:40;;;;;;;0.10;0.10;;;18.70;73.00;;;;;;5075627;28;20024;-75
2023/08/02 04:06:53;;;;;;;0.25;0.20;;;18.80;73.00;;;;;;5049789;28;20379;-79
2023/08/02 04:09:26;;;;;;;0.30;0.30;;;18.80;72.80;;;;;;5077021;28;20048;-76
2023/08/02 04:11:53;;;;;;;0.10;0.10;;;18.90;72.80;;;;;;5093923;28;20053;-75
2023/08/02 04:14:19;;;;;;;0.43;0.17;;;18.90;72.90;;;;;;5093989;28;20089;-80
2023/08/02 04:17:07;;;;;;;0.10;0.10;;;18.90;73.00;;;;;;5094084;28;20040;-75
2023/08/02 04:19:33;;;;;;;0.10;0.10;;;18.90;73.10;;;;;;5063959;28;20056;-75
2023/08/02 04:21:59;;;;;;;;;;;19.00;72.90;;;;;;5075966;28;20504;-75
2023/08/02 04:24:31;;;;;;;0.25;0.20;;;19.00;72.90;;;;;;5094182;28;20028;-75
2023/08/02 04:27:00;;;;;;;2.47;1.55;;;19.00;72.60;;;;;;5093772;28;20382;-75
2023/08/02 04:29:26;;;;;;;0.90;0.80;;;19.10;72.80;;;;;;5059518;28;20467;-75
2023/08/02 04:31:51;;;;;;;;;;;19.10;72.80;;;;;;5075942;28;20039;-79
2023/08/02 04:34:17;;;;;;;1.20;0.60;;;19.10;72.90;;;;;;5081100;28;20018;-79
2023/08/02 04:36:43;;;;;;;0.15;0.15;;;19.10;72.70;;;;;;5055586;28;20041;-75
2023/08/02 04:39:10;;;;;;;0.17;0.13;;;19.20;72.70;;;;;;5076491;28;20040;-79
2023/08/02 04:41:37;;;;;;;0.47;0.28;;;19.20;72.70;;;;;;5071672;28;20033;-79
2023/08/02 04:44:03;;;;;;;0.10;0.10;;;19.30;72.70;;;;;;5073178;28;20044;-81
2023/08/02 04:46:29;;;;;;;0.15;0.10;;;19.30;72.70;;;;;;5073208;28;20374;-75
2023/08/02 04:49:03;;;;;;;0.10;0.10;;;19.30;72.80;;;;;;5055253;28;20455;-75
2023/08/02 04:51:29;;;;;;;0.30;0.30;;;19.30;72.50;;;;;;5055383;28;20406;-75
2023/08/02 04:53:55;;;;;;;3.00;0.20;;;19.40;73.40;;;;;;5072035;28;20521;-75
2023/08/02 04:56:21;;;;;;;0.10;0.10;;;19.40;72.50;;;;;;5072977;28;20036;-80
2023/08/02 04:58:52;;;;;;;0.35;0.35;;;19.40;72.60;;;;;;5073209;28;20040;-80
2023/08/02 05:01:18;;;;;;;0.10;0.10;;;19.40;72.60;;;;;;5053522;28;20037;-79
2023/08/02 05:03:45;;;;;;;0.10;0.10;;;19.40;72.40;;;;;;5071869;28;20036;-75
2023/08/02 05:06:11;;;;;;;0.10;0.10;;;19.40;72.10;;;;;;5071601;28;20040;-79
2023/08/02 05:08:37;;;;;;;;;;;19.50;72.30;;;;;;5055826;28;20055;-76
2023/08/02 05:11:22;;;;;;;0.15;0.10;;;19.50;72.40;;;;;;5072509;28;19913;-79
2023/08/02 05:13:48;;;;;;;0.40;0.40;;;19.50;72.50;;;;;;5072039;28;20040;-75
2023/08/02 05:16:14;;;;;;;4.18;1.05;;;19.50;72.30;;;;;;5054419;28;20033;-79
2023/08/02 05:18:40;;;;;;;0.10;0.10;;;19.50;72.30;;;;;;5055105;28;20097;-79
2023/08/02 05:21:25;;;;;;;0.10;0.10;;;19.50;71.80;;;;;;5054777;28;20119;-79
2023/08/02 05:23:51;;;;;;;0.10;0.10;;;19.50;72.60;;;;;;5072894;28;20028;-79
2023/08/02 05:26:17;;;;;;;0.55;0.43;;;19.50;72.90;;;;;;5037857;28;20055;-75
2023/08/02 05:29:08;;;;;;;;;;;19.50;73.00;;;;;;5055547;28;20029;-74
2023/08/02 05:31:34;;;;;;;0.10;0.10;;;19.50;72.80;;;;;;5037797;28;19920;-79
2023/08/02 05:34:08;;;;;;;0.10;0.10;;;19.40;72.70;;;;;;5072987;28;20086;-80
2023/08/02 05:36:34;;;;;;;0.15;0.15;;;19.40;72.80;;;;;;5071453;28;20040;-79
2023/08/02 05:39:00;;;;;;;0.10;0.10;;;19.40;73.00;;;;;;5072766;28;20033;-80
2023/08/02 05:41:26;;;;;;;0.70;0.43;;;19.40;72.90;;;;;;5071105;28;20154;-80
2023/08/02 05:43:55;;;;;;;0.10;0.10;;;19.40;73.10;;;;;;5054885;28;20181;-74
2023/08/02 05:46:21;;;;;;;0.10;0.10;;;19.40;73.10;;;;;;5037706;28;20044;-79
2023/08/02 05:48:49;;;;;;;;;;;19.40;73.40;;;;;;5055236;28;20051;-80
2023/08/02 05:51:14;;;;;;;;;;;19.40;73.30;;;;;;5072740;28;19917;-74
2023/08/02 05:53:40;;;;;;;0.15;0.15;;;19.50;73.20;;;;;;5072784;28;20365;-74
2023/08/02 05:56:07;;;;;;;0.10;0.10;;;19.50;73.10;;;;;;5071042;28;20042;-75
2023/08/02 05:58:33;;;;;;;;;;;19.50;73.70;;;;;;5073270;28;20638;-79
2023/08/02 06:00:59;;;;;;;0.30;0.10;;;19.60;72.50;;;;;;5053884;28;20405;-74
2023/08/02 06:03:25;;;;;;;0.35;0.20;;;19.60;72.70;;;;;;5072536;28;20044;-74
2023/08/02 06:05:51;;;;;;;;;;;19.70;72.50;;;;;;5057343;28;20028;-80
2023/08/02 06:08:17;;;;;;;0.25;0.20;;;19.80;72.60;;;;;;5076568;28;20245;-81
2023/08/02 06:10:43;;;;;;;0.25;0.25;;;20.00;71.80;;;;;;5076393;28;20139;-74
2023/08/02 06:13:11;;;;;;;;;;;20.10;71.80;;;;;;5058891;28;20108;-80
2023/08/02 06:15:37;;;;;;;0.30;0.30;;;20.20;71.70;;;;;;5041438;28;19912;-79
2023/08/02 06:18:03;;;;;;;0.10;0.10;;;20.40;71.30;;;;;;5058337;28;20032;-79
2023/08/02 06:20:42;;;;;;;0.32;0.32;;;20.50;70.90;;;;;;5076042;28;20036;-80
2023/08/02 06:23:11;;;;;;;0.10;0.10;;;20.50;70.70;;;;;;5075146;28;20568;-74
2023/08/02 06:25:37;;;;;;;0.10;0.10;;;20.50;70.80;;;;;;5057271;28;20044;-74
2023/08/02 06:28:15;;;;;;;;;;;20.70;70.50;;;;;;5076709;28;20488;-74
2023/08/02 06:31:01;;;;;;;0.08;0.08;;;20.70;70.70;;;;;;5057919;28;19920;-80
2023/08/02 06:33:27;;;;;;;0.00;0.00;;;20.80;70.00;;;;;;5075800;28;20037;-74
2023/08/02 06:35:54;;;;;;;;;;;20.80;69.90;;;;;;5076572;28;20040;-80
2023/08/02 06:38:20;;;;;;;0.10;0.10;;;20.80;70.10;;;;;;5075860;28;19912;-74
2023/08/02 06:40:46;;;;;;;0.10;0.10;;;20.80;70.00;;;;;;5057325;28;20098;-73
2023/08/02 06:43:15;;;;;;;;;;;20.80;70.00;;;;;;5075040;28;20036;-81
2023/08/02 06:45:47;;;;;;;0.10;0.10;;;20.90;69.80;;;;;;5075410;28;19919;-73
2023/08/02 06:48:24;;;;;;;0.10;0.10;;;20.90;69.80;;;;;;5075631;28;20063;-75
2023/08/02 06:50:54;;;;;;;0.10;0.10;;;20.90;69.60;;;;;;5057417;28;20482;-81
2023/08/02 06:53:20;;;;;;;0.10;0.10;;;20.90;69.40;;;;;;5057736;28;20082;-80
2023/08/02 06:55:49;;;;;;;0.10;0.10;;;21.00;69.40;;;;;;5074225;28;20055;-74
2023/08/02 06:58:33;;;;;;;0.28;0.28;;;21.00;69.00;;;;;;5057785;28;20040;-74
2023/08/02 07:01:21;;;;;;;0.20;0.20;;;21.10;68.90;;;;;;5056929;28;20074;-74
2023/08/02 07:03:48;;;;;;;0.55;0.55;;;21.20;68.50;;;;;;5075049;28;20474;-81
2023/08/02 07:06:19;;;;;;;0.10;0.10;;;21.40;68.20;;;;;;5040413;28;20549;-75
2023/08/02 07:08:49;;;;;;;0.10;0.10;;;21.40;67.90;;;;;;5057392;28;20063;-80
2023/08/02 07:11:15;;;;;;;0.20;0.20;;;21.40;67.40;;;;;;5057469;28;20033;-81
2023/08/02 07:14:00;;;;;;;0.20;0.20;;;21.40;67.40;;;;;;5075277;28;20104;-75
2023/08/02 07:16:26;;;;;;;0.10;0.10;;;21.30;67.90;;;;;;5074966;28;20029;-80
2023/08/02 07:18:52;;;;;;;;;;;21.20;68.10;;;;;;5057701;28;20393;-75
2023/08/02 07:21:28;;;;;;;;;;;;;;;;;;;;;
2023/08/02 07:24:01;;;;;;;0.55;0.40;;;21.20;68.10;;;;;;5075000;28;20424;-75
2023/08/02 07:26:44;;;;;;;0.28;0.20;;;21.30;67.60;;;;;;5074700;28;20045;-74
2023/08/02 07:29:13;;;;;;;0.10;0.10;;;21.40;67.60;;;;;;5074995;28;20040;-74
2023/08/02 07:31:39;;;;;;;0.55;0.38;;;21.40;68.40;;;;;;5056424;28;20037;-81
2023/08/02 07:34:05;;;;;;;;;;;21.50;67.60;;;;;;5075427;28;20043;-81
2023/08/02 07:36:31;;;;;;;0.35;0.35;;;21.50;67.70;;;;;;5056882;28;20365;-75
2023/08/02 07:38:57;;;;;;;;;;;21.50;67.10;;;;;;5073238;28;20515;-75
2023/08/02 07:41:23;;;;;;;0.17;0.17;;;21.60;66.70;;;;;;5082732;28;20015;-80
2023/08/02 07:43:49;;;;;;;;;;;21.70;66.30;;;;;;5060757;28;20123;-76
2023/08/02 07:46:43;;;;;;;0.20;0.20;;;21.80;66.50;;;;;;5094756;28;19924;-80
2023/08/02 07:49:09;;;;;;;0.17;0.17;;;21.90;66.20;;;;;;5061278;28;20046;-81
2023/08/02 07:51:35;;;;;;;0.20;0.20;;;22.10;65.80;;;;;;5076388;28;20627;-80
2023/08/02 07:54:03;;;;;;;;;;;22.30;65.90;;;;;;5077212;28;20032;-81
2023/08/02 07:56:32;;;;;;;0.32;0.30;;;22.30;65.50;;;;;;5094598;28;19952;-80
2023/08/02 07:59:01;;;;;;;0.10;0.10;;;22.40;64.20;;;;;;5094544;28;20048;-80
2023/08/02 08:01:45;;;;;;;1.30;1.20;;;22.50;64.60;;;;;;5076099;28;20032;-75
2023/08/02 08:04:23;;;;;;;0.20;0.20;;;22.70;64.90;;;;;;5094739;28;20044;-79
2023/08/02 08:06:56;;;;;;;0.10;0.10;;;22.90;64.20;;;;;;5094198;28;20036;-80
2023/08/02 08:09:24;;;;;;;0.20;0.20;;;23.10;63.60;;;;;;5094870;28;20182;-75
2023/08/02 08:11:50;;;;;;;0.20;0.20;;;23.30;64.10;;;;;;5059361;28;20067;-75
2023/08/02 08:14:16;;;;;;;0.10;0.10;;;23.60;62.30;;;;;;5094242;28;20115;-75
2023/08/02 08:16:42;;;;;;;0.10;0.10;;;23.90;62.10;;;;;;5076164;28;20039;-80
2023/08/02 08:19:11;;;;;;;;;;;24.30;61.30;;;;;;5059932;28;20085;-75
2023/08/02 08:21:37;;;;;;;0.20;0.20;;;24.80;61.20;;;;;;5093961;28;19927;-81
2023/08/02 08:24:03;;;;;;;0.10;0.10;;;25.20;59.50;;;;;;5076082;28;20043;-76
2023/08/02 08:26:29;;;;;;;0.25;0.25;;;25.40;57.80;;;;;;5093758;28;20481;-75
2023/08/02 08:28:55;;;;;;;0.38;0.35;;;25.80;56.90;;;;;;5093271;28;20085;-74
2023/08/02 08:31:21;;;;;;;0.38;0.30;;;26.20;55.30;;;;;;5104110;27;20059;-74
2023/08/02 08:33:47;;;;;;;0.10;0.10;;;26.60;54.20;;;;;;5116530;27;20038;-75
2023/08/02 08:36:32;;;;;;;0.65;0.20;;;27.30;53.50;;;;;;5134371;27;20110;-75
2023/08/02 08:39:00;;;;;;;0.47;0.20;;;27.90;52.00;;;;;;5116197;27;20031;-75
2023/08/02 08:41:26;;;;;;;0.20;0.20;;;28.60;51.00;;;;;;5115782;27;20084;-75
2023/08/02 08:43:53;;;;;;;0.30;0.30;;;29.30;49.20;;;;;;5134723;27;20404;-75
2023/08/02 08:46:21;;;;;;;0.55;0.20;;;30.00;48.60;;;;;;5115897;27;20028;-75
2023/08/02 08:48:48;;;;;;;0.32;0.22;;;30.80;45.10;;;;;;5116091;27;20273;-81
2023/08/02 08:51:22;;;;;;;0.38;0.38;;;31.50;43.20;;;;;;5115856;27;20031;-76
2023/08/02 08:53:52;;;;;;;0.95;0.73;;;32.20;41.00;;;;;;5099458;27;20038;-77
2023/08/02 08:56:24;;;;;;;0.20;0.20;;;32.90;38.40;;;;;;5098689;27;20045;-77
2023/08/02 08:58:53;;;;;;;0.25;0.25;;;33.60;36.60;;;;;;5116254;27;20038;-77
2023/08/02 09:01:19;;;;;;;0.20;0.20;;;34.20;34.50;;;;;;5114454;27;20131;-76
2023/08/02 09:03:46;;;;;;;0.50;0.40;;;34.70;33.30;;;;;;5098923;27;20034;-81
2023/08/02 09:06:15;;;;;;;0.30;0.30;;;35.30;33.30;;;;;;5098903;27;20527;-81
2023/08/02 09:08:44;;;;;;;0.35;0.35;;;35.80;30.70;;;;;;5116301;27;20122;-77
2023/08/02 09:11:14;;;;;;;0.30;0.30;;;36.40;29.50;;;;;;5115415;27;20532;-76
2023/08/02 09:13:40;;;;;;;0.30;0.30;;;36.80;28.90;;;;;;5116070;27;20559;-80
2023/08/02 09:16:25;;;;;;;0.30;0.30;;;37.40;28.40;;;;;;5115454;27;20510;-81
2023/08/02 09:18:51;;;;;;;0.30;0.30;;;37.80;27.20;;;;;;5134005;27;20027;-77
2023/08/02 09:21:27;;;;;;;0.47;0.40;;;38.20;26.10;;;;;;5115266;27;20031;-77
2023/08/02 09:24:18;;;;;;;0.40;0.40;;;38.70;26.00;;;;;;5134452;27;20074;-76
2023/08/02 09:27:10;;;;;;;1.48;1.30;;;39.40;25.10;;;;;;5116558;27;20396;-82
2023/08/02 09:29:55;;;;;;;0.40;0.40;;;40.00;23.80;;;;;;5117389;27;20024;-81
2023/08/02 09:32:24;;;;;;;0.50;0.50;;;40.40;22.40;;;;;;5115089;27;20099;-81
2023/08/02 09:35:10;;;;;;;0.80;0.80;;;40.60;23.40;;;;;;5115701;27;20076;-77
2023/08/02 09:37:39;;;;;;;1.15;1.02;;;41.20;23.20;;;;;;5115614;27;20027;-83
2023/08/02 09:40:11;;;;;;;0.60;0.60;;;41.70;19.80;;;;;;5114021;27;20050;-80
2023/08/02 09:42:37;;;;;;;0.50;0.50;;;41.70;20.30;;;;;;5099337;27;20130;-80
2023/08/02 09:45:08;;;;;;;1.25;0.80;;;42.10;21.20;;;;;;5115380;27;20076;-83
2023/08/02 09:47:34;;;;;;;0.52;0.52;;;42.40;19.80;;;;;;5134127;27;20067;-76
2023/08/02 09:50:20;;;;;;;0.52;0.52;;;42.80;19.30;;;;;;5111216;28;20037;-82
2023/08/02 09:52:46;;;;;;;0.68;0.68;;;43.30;20.20;;;;;;5102991;28;20399;-76
2023/08/02 09:55:12;;;;;;;0.60;0.60;;;43.90;19.10;;;;;;5114771;27;20324;-80
2023/08/02 09:57:46;;;;;;;0.70;0.70;;;44.40;19.30;;;;;;5133947;27;20056;-82
2023/08/02 10:00:13;;;;;;;0.63;0.63;;;44.90;18.60;;;;;;5114447;28;20484;-82
2023/08/02 10:02:39;;;;;;;0.90;0.90;;;45.50;18.60;;;;;;5096482;28;20599;-81
2023/08/02 10:05:25;;;;;;;0.77;0.77;;;46.20;18.00;;;;;;5114854;28;20039;-76
2023/08/02 10:07:54;;;;;;;1.77;0.82;;;46.50;17.20;;;;;;5115225;28;20557;-81
2023/08/02 10:10:39;;;;;;;0.80;0.80;;;47.10;17.70;;;;;;5114571;28;20422;-76
2023/08/02 10:13:47;;;;;;;;;;;47.50;16.80;;;;;;5115476;28;20110;-75
2023/08/02 10:16:18;;;;;;;0.70;0.70;;;48.00;15.90;;;;;;5114442;28;19915;-76
2023/08/02 10:18:48;;;;;;;0.90;0.90;;;48.20;15.70;;;;;;5115560;28;20039;-82
2023/08/02 10:21:15;;;;;;;0.90;0.90;;;48.60;15.10;;;;;;5114542;28;20061;-80
2023/08/02 10:24:00;;;;;;;0.98;0.95;;;48.80;15.20;;;;;;5114767;28;20055;-76
2023/08/02 10:26:47;;;;;;;1.20;1.10;;;49.10;15.50;;;;;;5099933;28;20078;-81
2023/08/02 10:29:21;;;;;;;2.72;1.15;;;49.70;15.00;;;;;;5133162;28;20034;-82
2023/08/02 10:31:47;;;;;;;1.20;1.10;;;50.10;15.00;;;;;;5094811;28;20104;-79
2023/08/02 10:34:51;;;;;;;1.10;1.00;;;50.20;14.30;;;;;;5111377;28;20023;-77
2023/08/02 10:37:19;;;;;;;1.70;1.60;;;50.20;13.80;;;;;;5111068;28;20191;-76
2023/08/02 10:40:04;;;;;;;1.80;1.70;;;50.40;13.00;;;;;;5094243;28;20027;-81
2023/08/02 10:43:25;;;;;;;;;;;50.40;12.90;;;;;;5094467;28;20038;-80
2023/08/02 10:46:32;;;;;;;1.60;1.50;;;50.80;13.30;;;;;;5110847;28;19923;-82
2023/08/02 10:49:16;;;;;;;1.60;1.50;;;50.30;13.20;;;;;;5111494;28;20031;-81
2023/08/02 10:51:45;;;;;;;1.50;1.40;;;50.20;13.50;;;;;;5112701;28;20562;-83
2023/08/02 10:54:32;;;;;;;1.90;1.50;;;50.60;13.40;;;;;;5115024;28;20043;-80
2023/08/02 10:57:18;;;;;;;1.42;1.27;;;50.40;13.50;;;;;;5114768;28;20035;-76
2023/08/02 10:59:45;;;;;;;1.80;1.30;;;50.90;13.30;;;;;;5116387;27;20100;-81
2023/08/02 11:02:12;;;;;;;1.48;1.38;;;51.30;13.20;;;;;;5114416;28;20027;-80
2023/08/02 11:04:47;;;;;;;2.03;1.83;;;51.30;13.40;;;;;;5114762;28;20034;-77
2023/08/02 11:07:36;;;;;;;1.70;1.60;;;51.70;12.80;;;;;;5114487;28;20042;-78
2023/08/02 11:10:05;;;;;;;2.92;1.83;;;52.00;13.00;;;;;;5097767;28;20030;-76
2023/08/02 11:12:33;;;;;;;1.52;1.42;;;52.40;12.60;;;;;;5116097;28;20035;-77
2023/08/02 11:14:59;;;;;;;1.50;1.40;;;52.60;13.20;;;;;;5114671;28;20051;-76
2023/08/02 11:17:25;;;;;;;2.10;1.90;;;53.00;13.00;;;;;;5115789;28;20050;-81
2023/08/02 11:20:14;;;;;;;1.70;1.60;;;51.70;13.10;;;;;;5114547;28;20032;-76
2023/08/02 11:22:41;;;;;;;1.50;1.40;;;51.50;13.30;;;;;;5114376;28;20451;-76
2023/08/02 11:25:08;;;;;;;1.92;1.73;;;52.10;13.60;;;;;;5115439;28;20498;-77
2023/08/02 11:27:37;;;;;;;2.33;2.13;;;52.80;12.30;;;;;;5114427;28;20115;-84
2023/08/02 11:30:12;;;;;;;2.08;1.88;;;53.20;12.70;;;;;;5097507;28;20043;-82
2023/08/02 11:32:57;;;;;;;2.20;2.00;;;53.40;13.30;;;;;;5114272;28;20056;-81
2023/08/02 11:36:03;;;;;;;2.38;2.17;;;53.70;12.60;;;;;;5115319;28;20085;-77
2023/08/02 11:38:16;;;;;;;2.08;1.88;;;54.00;11.50;;;;;;5109270;28;20442;-81
2023/08/02 11:40:42;;;;;;;2.20;2.00;;;53.90;12.10;;;;;;5113804;28;20032;-76
2023/08/02 11:43:42;;;;;;;2.58;2.38;;;53.90;10.50;;;;;;5096788;28;20035;-81
2023/08/02 11:46:26;;;;;;;2.10;1.90;;;54.20;12.20;;;;;;5031874;28;20413;-76
2023/08/02 11:48:54;;;;;;;2.90;2.60;;;54.40;12.00;;;;;;5032299;28;20114;-76
2023/08/02 11:51:22;;;;;;;2.40;2.20;;;54.80;11.80;;;;;;5031915;28;20179;-77
2023/08/02 11:54:07;;;;;;;2.33;2.13;;;55.10;12.00;;;;;;5032169;28;20052;-83
2023/08/02 11:56:44;;;;;;;2.75;2.47;;;54.10;11.00;;;;;;5030539;28;20482;-76
2023/08/02 11:59:11;;;;;;;3.00;2.70;;;54.30;10.70;;;;;;4998779;28;20048;-77
2023/08/02 12:01:43;;;;;;;2.80;2.50;;;54.60;11.20;;;;;;5014603;28;20036;-82
2023/08/02 12:04:10;;;;;;;2.40;2.20;;;55.10;11.70;;;;;;5014406;28;20056;-82
2023/08/02 12:06:55;;;;;;;2.35;2.15;;;55.60;11.60;;;;;;5014851;28;20627;-76
2023/08/02 12:10:08;;;;;;;3.30;3.00;;;55.50;11.50;;;;;;5031782;28;20076;-76
2023/08/02 12:12:35;;;;;;;3.08;2.78;;;55.30;10.50;;;;;;5015026;28;20076;-77
2023/08/02 12:15:20;;;;;;;2.97;2.67;;;55.80;10.60;;;;;;5019649;28;20071;-81
2023/08/02 12:18:00;;;;;;;3.15;2.85;;;56.30;10.90;;;;;;5075558;28;20109;-82
2023/08/02 12:20:45;;;;;;;2.75;2.55;;;56.60;10.80;;;;;;5093865;28;20598;-76
2023/08/02 12:23:11;;;;;;;3.63;3.33;;;56.80;10.60;;;;;;5093015;28;20031;-76
2023/08/02 12:25:56;;;;;;;3.55;3.25;;;56.90;10.40;;;;;;5093715;28;20423;-79
2023/08/02 12:28:22;;;;;;;3.50;3.20;;;56.80;9.90;;;;;;5092857;28;20067;-81
2023/08/02 12:31:18;;;;;;;3.50;3.20;;;56.60;10.50;;;;;;5093880;28;20032;-76
2023/08/02 12:33:46;;;;;;;3.45;3.15;;;56.80;10.50;;;;;;5093776;28;20485;-81
2023/08/02 12:36:42;;;;;;;3.17;2.88;;;57.10;11.10;;;;;;5093798;28;20036;-77
2023/08/02 12:39:15;;;;;;;4.22;3.85;;;57.50;10.00;;;;;;5075790;28;20039;-83
2023/08/02 12:41:44;;;;;;;4.53;4.13;;;57.20;9.50;;;;;;5093813;28;20085;-76
2023/08/02 12:44:11;;;;;;;3.75;3.45;;;57.00;10.10;;;;;;5076027;28;20067;-80
2023/08/02 12:46:37;;;;;;;3.78;3.47;;;57.30;10.70;;;;;;5075198;28;20051;-76
2023/08/02 12:49:03;;;;;;;4.32;3.92;;;57.10;10.80;;;;;;5093678;28;20044;-81
2023/08/02 12:54:13;;;;;;;4.32;3.95;;;57.00;10.70;;;;;;5063254;28;20131;-76
2023/08/02 12:56:44;;;;;;;4.05;3.65;;;56.90;10.20;;;;;;5093076;28;20089;-78
2023/08/02 12:59:20;;;;;;;3.85;3.55;;;56.80;9.70;;;;;;5075317;28;20028;-77
2023/08/02 13:01:47;;;;;;;4.75;4.35;;;56.80;10.10;;;;;;5092817;28;20028;-80
2023/08/02 13:04:13;;;;;;;3.83;3.53;;;56.90;10.30;;;;;;5075249;28;20039;-76
2023/08/02 13:06:39;;;;;;;3.42;3.13;;;57.10;10.50;;;;;;5093217;28;20472;-80
2023/08/02 13:09:05;;;;;;;4.18;3.85;;;57.10;11.00;;;;;;5075044;28;20040;-82
2023/08/02 13:11:31;;;;;;;4.03;3.72;;;57.20;10.60;;;;;;5091689;28;20032;-81
2023/08/02 13:13:58;;;;;;;5.22;4.82;;;57.60;10.30;;;;;;5074784;28;20089;-77
2023/08/02 13:16:24;;;;;;;3.83;3.53;;;57.70;10.20;;;;;;5058044;28;20366;-81
2023/08/02 13:19:02;;;;;;;4.22;3.88;;;57.70;10.50;;;;;;5074941;28;20042;-76
2023/08/02 13:21:28;;;;;;;4.53;4.13;;;58.00;10.50;;;;;;5074645;28;20495;-76
2023/08/02 13:23:54;;;;;;;4.57;4.18;;;58.30;10.10;;;;;;5074927;28;20099;-80
2023/08/02 13:26:20;;;;;;;4.35;3.97;;;58.10;10.40;;;;;;5074557;28;20058;-76
2023/08/02 13:28:47;;;;;;;5.03;4.25;;;57.90;10.30;;;;;;5074894;28;20036;-80